sensor_id;sensor_type;location;lat;lon;timestamp;temperature;humidity
18281;DHT22;9266;51.132;17.062;2023-03-01T00:01:29;-3.40;99.90
18281;DHT22;9266;51.132;17.062;2023-03-01T00:03:56;-3.40;99.90
18281;DHT22;9266;51.132;17.062;2023-03-01T00:06:25;-3.50;99.90
18281;DHT22;9266;51.132;17.062;2023-03-01T00:08:53;-3.50;1.00
18281;DHT22;9266;51.132;17.062;2023-03-01T00:11:22;-3.50;1.00
18281;DHT22;9266;51.132;17.062;2023-03-01T00:13:52;-3.50;1.00
18281;DHT22;9266;51.132;17.062;2023-03-01T00:16:21;-3.50;1.00
18281;DHT22;9266;51.132;17.062;2023-03-01T00:18:49;-3.50;1.00
18281;DHT22;9266;51.132;17.062;2023-03-01T00:21:16;-3.50;1.00
18281;DHT22;9266;51.132;17.062;2023-03-01T00:23:43;-3.50;1.00
18281;DHT22;9266;51.132;17.062;2023-03-01T00:26:13;-3.60;54.50
18281;DHT22;9266;51.132;17.062;2023-03-01T00:28:41;-3.60;99.90
18281;DHT22;9266;51.132;17.062;2023-03-01T00:31:09;-3.60;99.90
18281;DHT22;9266;51.132;17.062;2023-03-01T00:33:37;-3.60;99.90
18281;DHT22;9266;51.132;17.062;2023-03-01T00:36:05;-3.60;99.90
18281;DHT22;9266;51.132;17.062;2023-03-01T00:38:35;-3.80;1.00
18281;DHT22;9266;51.132;17.062;2023-03-01T00:41:06;-3.70;1.00
18281;DHT22;9266;51.132;17.062;2023-03-01T00:43:35;-3.70;1.00
18281;DHT22;9266;51.132;17.062;2023-03-01T00:46:03;-3.70;1.00
18281;DHT22;9266;51.132;17.062;2023-03-01T00:48:31;-3.50;1.00
18281;DHT22;9266;51.132;17.062;2023-03-01T00:51:05;-3.50;1.00
18281;DHT22;9266;51.132;17.062;2023-03-01T00:53:32;-3.50;1.00
18281;DHT22;9266;51.132;17.062;2023-03-01T00:55:59;-3.40;1.00
18281;DHT22;9266;51.132;17.062;2023-03-01T00:58:26;-3.50;1.00
18281;DHT22;9266;51.132;17.062;2023-03-01T01:00:55;-3.50;1.00
18281;DHT22;9266;51.132;17.062;2023-03-01T01:03:22;-3.60;1.00
18281;DHT22;9266;51.132;17.062;2023-03-01T01:05:50;-3.60;1.00
18281;DHT22;9266;51.132;17.062;2023-03-01T01:08:17;-3.70;1.00
18281;DHT22;9266;51.132;17.062;2023-03-01T01:10:45;-3.80;1.00
18281;DHT22;9266;51.132;17.062;2023-03-01T01:13:12;-3.90;1.00
18281;DHT22;9266;51.132;17.062;2023-03-01T01:15:40;-3.90;1.00
18281;DHT22;9266;51.132;17.062;2023-03-01T01:18:08;-3.90;1.00
18281;DHT22;9266;51.132;17.062;2023-03-01T01:20:36;-3.90;1.00
18281;DHT22;9266;51.132;17.062;2023-03-01T01:23:05;-3.90;1.00
18281;DHT22;9266;51.132;17.062;2023-03-01T01:25:35;-3.90;1.00
18281;DHT22;9266;51.132;17.062;2023-03-01T01:28:02;-3.80;19.50
18281;DHT22;9266;51.132;17.062;2023-03-01T01:30:30;-3.80;69.40
18281;DHT22;9266;51.132;17.062;2023-03-01T01:32:57;-3.90;60.30
18281;DHT22;9266;51.132;17.062;2023-03-01T01:35:25;-4.00;31.10
18281;DHT22;9266;51.132;17.062;2023-03-01T01:37:52;-4.00;27.20
18281;DHT22;9266;51.132;17.062;2023-03-01T01:40:19;-4.00;54.00
18281;DHT22;9266;51.132;17.062;2023-03-01T01:42:46;-4.10;95.80
18281;DHT22;9266;51.132;17.062;2023-03-01T01:45:29;-4.10;99.90
18281;DHT22;9266;51.132;17.062;2023-03-01T01:48:00;-4.20;99.90
18281;DHT22;9266;51.132;17.062;2023-03-01T01:50:30;-4.20;99.90
18281;DHT22;9266;51.132;17.062;2023-03-01T01:53:06;-4.20;99.90
18281;DHT22;9266;51.132;17.062;2023-03-01T01:55:36;-4.20;99.90
18281;DHT22;9266;51.132;17.062;2023-03-01T01:58:06;-4.10;99.90
18281;DHT22;9266;51.132;17.062;2023-03-01T02:00:35;-4.10;99.90
18281;DHT22;9266;51.132;17.062;2023-03-01T02:03:08;-4.10;99.90
18281;DHT22;9266;51.132;17.062;2023-03-01T02:05:40;-4.20;99.90
18281;DHT22;9266;51.132;17.062;2023-03-01T02:08:12;-4.20;99.90
18281;DHT22;9266;51.132;17.062;2023-03-01T02:10:40;-4.20;99.90
18281;DHT22;9266;51.132;17.062;2023-03-01T02:13:08;-4.20;99.90
18281;DHT22;9266;51.132;17.062;2023-03-01T02:15:38;-4.30;99.90
18281;DHT22;9266;51.132;17.062;2023-03-01T02:18:06;-4.10;99.90
18281;DHT22;9266;51.132;17.062;2023-03-01T02:20:40;-4.10;99.90
18281;DHT22;9266;51.132;17.062;2023-03-01T02:23:12;-4.00;99.90
18281;DHT22;9266;51.132;17.062;2023-03-01T02:25:47;-4.00;99.90
18281;DHT22;9266;51.132;17.062;2023-03-01T02:28:25;-4.00;99.90
18281;DHT22;9266;51.132;17.062;2023-03-01T02:30:53;-4.10;99.90
18281;DHT22;9266;51.132;17.062;2023-03-01T02:33:39;-4.20;99.90
18281;DHT22;9266;51.132;17.062;2023-03-01T02:36:09;-4.20;99.90
18281;DHT22;9266;51.132;17.062;2023-03-01T02:38:39;-4.20;99.90
18281;DHT22;9266;51.132;17.062;2023-03-01T02:41:07;-4.20;99.90
18281;DHT22;9266;51.132;17.062;2023-03-01T02:43:36;-4.20;99.90
18281;DHT22;9266;51.132;17.062;2023-03-01T02:46:08;-4.20;99.90
18281;DHT22;9266;51.132;17.062;2023-03-01T02:48:43;-4.30;99.90
18281;DHT22;9266;51.132;17.062;2023-03-01T02:51:27;-4.30;99.90
18281;DHT22;9266;51.132;17.062;2023-03-01T02:54:08;-4.40;99.90
18281;DHT22;9266;51.132;17.062;2023-03-01T02:56:37;-4.40;99.90
18281;DHT22;9266;51.132;17.062;2023-03-01T02:59:06;-4.40;99.90
18281;DHT22;9266;51.132;17.062;2023-03-01T03:01:33;-4.50;99.90
18281;DHT22;9266;51.132;17.062;2023-03-01T03:04:07;-4.50;99.90
18281;DHT22;9266;51.132;17.062;2023-03-01T03:06:35;-4.50;99.90
18281;DHT22;9266;51.132;17.062;2023-03-01T03:09:03;-4.50;99.90
18281;DHT22;9266;51.132;17.062;2023-03-01T03:11:30;-4.50;99.90
18281;DHT22;9266;51.132;17.062;2023-03-01T03:13:58;-4.50;99.90
18281;DHT22;9266;51.132;17.062;2023-03-01T03:16:26;-4.60;99.90
18281;DHT22;9266;51.132;17.062;2023-03-01T03:18:55;-4.60;99.90
18281;DHT22;9266;51.132;17.062;2023-03-01T03:21:30;-4.60;99.90
18281;DHT22;9266;51.132;17.062;2023-03-01T03:23:57;-4.50;99.90
18281;DHT22;9266;51.132;17.062;2023-03-01T03:26:25;-4.50;99.90
18281;DHT22;9266;51.132;17.062;2023-03-01T03:28:52;-4.60;99.90
18281;DHT22;9266;51.132;17.062;2023-03-01T03:31:20;-4.70;99.90
18281;DHT22;9266;51.132;17.062;2023-03-01T03:33:48;-4.70;99.90
18281;DHT22;9266;51.132;17.062;2023-03-01T03:36:17;-4.70;99.90
18281;DHT22;9266;51.132;17.062;2023-03-01T03:38:44;-4.70;99.90
18281;DHT22;9266;51.132;17.062;2023-03-01T03:41:12;-4.80;99.90
18281;DHT22;9266;51.132;17.062;2023-03-01T03:43:40;-4.80;99.90
18281;DHT22;9266;51.132;17.062;2023-03-01T03:46:08;-4.80;99.90
18281;DHT22;9266;51.132;17.062;2023-03-01T03:48:37;-4.80;99.90
18281;DHT22;9266;51.132;17.062;2023-03-01T03:51:05;-4.90;99.90
18281;DHT22;9266;51.132;17.062;2023-03-01T03:53:33;-4.80;99.90
18281;DHT22;9266;51.132;17.062;2023-03-01T03:56:00;-4.80;99.90
18281;DHT22;9266;51.132;17.062;2023-03-01T03:58:27;-4.70;99.90
18281;DHT22;9266;51.132;17.062;2023-03-01T04:00:56;-4.80;99.90
18281;DHT22;9266;51.132;17.062;2023-03-01T04:03:24;-4.70;99.90
18281;DHT22;9266;51.132;17.062;2023-03-01T04:05:52;-4.70;99.90
18281;DHT22;9266;51.132;17.062;2023-03-01T04:08:22;-4.80;99.90
18281;DHT22;9266;51.132;17.062;2023-03-01T04:10:51;-4.70;99.90
18281;DHT22;9266;51.132;17.062;2023-03-01T04:13:20;-4.80;99.90
18281;DHT22;9266;51.132;17.062;2023-03-01T04:15:48;-4.80;99.90
18281;DHT22;9266;51.132;17.062;2023-03-01T04:18:17;-3.50;99.90
18281;DHT22;9266;51.132;17.062;2023-03-01T04:20:45;-4.80;99.90
18281;DHT22;9266;51.132;17.062;2023-03-01T04:23:15;-4.90;99.90
18281;DHT22;9266;51.132;17.062;2023-03-01T04:25:49;-4.90;99.90
18281;DHT22;9266;51.132;17.062;2023-03-01T04:28:19;-4.90;99.90
18281;DHT22;9266;51.132;17.062;2023-03-01T04:30:47;-5.00;99.90
18281;DHT22;9266;51.132;17.062;2023-03-01T04:33:14;-5.00;99.90
18281;DHT22;9266;51.132;17.062;2023-03-01T04:35:41;-5.00;99.90
18281;DHT22;9266;51.132;17.062;2023-03-01T04:38:08;-5.00;99.90
18281;DHT22;9266;51.132;17.062;2023-03-01T04:40:36;-5.00;99.90
18281;DHT22;9266;51.132;17.062;2023-03-01T04:43:05;-5.00;99.90
18281;DHT22;9266;51.132;17.062;2023-03-01T04:45:33;-5.10;99.90
18281;DHT22;9266;51.132;17.062;2023-03-01T04:48:01;-5.10;99.90
18281;DHT22;9266;51.132;17.062;2023-03-01T04:50:28;-5.10;99.90
18281;DHT22;9266;51.132;17.062;2023-03-01T04:52:55;-5.00;99.90
18281;DHT22;9266;51.132;17.062;2023-03-01T04:55:26;-5.00;99.90
18281;DHT22;9266;51.132;17.062;2023-03-01T04:57:53;-4.70;99.90
18281;DHT22;9266;51.132;17.062;2023-03-01T05:00:22;-5.10;99.90
18281;DHT22;9266;51.132;17.062;2023-03-01T05:02:51;-5.10;99.90
18281;DHT22;9266;51.132;17.062;2023-03-01T05:05:21;-5.00;99.90
18281;DHT22;9266;51.132;17.062;2023-03-01T05:07:52;-5.10;99.90
18281;DHT22;9266;51.132;17.062;2023-03-01T05:10:20;-5.10;99.90
18281;DHT22;9266;51.132;17.062;2023-03-01T05:12:47;-5.00;99.90
18281;DHT22;9266;51.132;17.062;2023-03-01T05:15:14;-5.00;99.90
18281;DHT22;9266;51.132;17.062;2023-03-01T05:17:43;-5.00;99.90
18281;DHT22;9266;51.132;17.062;2023-03-01T05:20:11;-5.10;99.90
18281;DHT22;9266;51.132;17.062;2023-03-01T05:22:38;-5.20;99.90
18281;DHT22;9266;51.132;17.062;2023-03-01T05:25:05;-5.10;99.90
18281;DHT22;9266;51.132;17.062;2023-03-01T05:27:34;-5.10;99.90
18281;DHT22;9266;51.132;17.062;2023-03-01T05:30:01;-5.10;99.90
18281;DHT22;9266;51.132;17.062;2023-03-01T05:32:44;-5.00;99.90
18281;DHT22;9266;51.132;17.062;2023-03-01T05:35:12;-5.10;99.90
18281;DHT22;9266;51.132;17.062;2023-03-01T05:37:41;-5.10;99.90
18281;DHT22;9266;51.132;17.062;2023-03-01T05:40:10;-5.10;99.90
18281;DHT22;9266;51.132;17.062;2023-03-01T05:42:44;-5.00;99.90
18281;DHT22;9266;51.132;17.062;2023-03-01T05:45:12;-5.00;99.90
18281;DHT22;9266;51.132;17.062;2023-03-01T05:47:40;-4.90;99.90
18281;DHT22;9266;51.132;17.062;2023-03-01T05:50:13;-4.80;99.90
18281;DHT22;9266;51.132;17.062;2023-03-01T05:52:45;-4.30;99.90
18281;DHT22;9266;51.132;17.062;2023-03-01T05:55:12;-4.40;99.90
18281;DHT22;9266;51.132;17.062;2023-03-01T05:57:39;-4.30;99.90
18281;DHT22;9266;51.132;17.062;2023-03-01T06:00:07;-4.00;99.90
18281;DHT22;9266;51.132;17.062;2023-03-01T06:02:35;-3.70;99.90
18281;DHT22;9266;51.132;17.062;2023-03-01T06:05:03;-3.50;99.90
18281;DHT22;9266;51.132;17.062;2023-03-01T06:07:32;-3.20;99.90
18281;DHT22;9266;51.132;17.062;2023-03-01T06:09:59;-2.70;99.90
18281;DHT22;9266;51.132;17.062;2023-03-01T06:12:30;-2.70;99.90
18281;DHT22;9266;51.132;17.062;2023-03-01T06:14:58;-2.20;99.90
18281;DHT22;9266;51.132;17.062;2023-03-01T06:17:26;-1.90;99.90
18281;DHT22;9266;51.132;17.062;2023-03-01T06:19:53;-1.70;99.90
18281;DHT22;9266;51.132;17.062;2023-03-01T06:22:20;-1.60;99.90
18281;DHT22;9266;51.132;17.062;2023-03-01T06:24:48;-1.20;99.90
18281;DHT22;9266;51.132;17.062;2023-03-01T06:27:16;-0.30;99.90
18281;DHT22;9266;51.132;17.062;2023-03-01T06:29:43;-0.30;99.90
18281;DHT22;9266;51.132;17.062;2023-03-01T06:32:10;0.00;99.90
18281;DHT22;9266;51.132;17.062;2023-03-01T06:34:37;-0.20;1.00
18281;DHT22;9266;51.132;17.062;2023-03-01T06:37:05;0.20;1.00
18281;DHT22;9266;51.132;17.062;2023-03-01T06:39:33;0.40;1.00
18281;DHT22;9266;51.132;17.062;2023-03-01T06:42:01;0.60;1.00
18281;DHT22;9266;51.132;17.062;2023-03-01T06:44:29;0.90;99.90
18281;DHT22;9266;51.132;17.062;2023-03-01T06:46:56;1.00;1.00
18281;DHT22;9266;51.132;17.062;2023-03-01T06:49:24;1.70;99.90
18281;DHT22;9266;51.132;17.062;2023-03-01T06:51:51;1.70;1.00
18281;DHT22;9266;51.132;17.062;2023-03-01T06:54:18;2.30;1.00
18281;DHT22;9266;51.132;17.062;2023-03-01T06:56:48;2.60;1.00
18281;DHT22;9266;51.132;17.062;2023-03-01T06:59:17;2.50;99.90
18281;DHT22;9266;51.132;17.062;2023-03-01T07:01:44;2.90;99.90
18281;DHT22;9266;51.132;17.062;2023-03-01T07:04:11;2.70;1.00
18281;DHT22;9266;51.132;17.062;2023-03-01T07:06:39;3.00;1.00
18281;DHT22;9266;51.132;17.062;2023-03-01T07:09:06;2.90;99.90
18281;DHT22;9266;51.132;17.062;2023-03-01T07:11:33;2.70;1.00
18281;DHT22;9266;51.132;17.062;2023-03-01T07:14:00;3.00;1.00
18281;DHT22;9266;51.132;17.062;2023-03-01T07:16:29;4.00;99.90
18281;DHT22;9266;51.132;17.062;2023-03-01T07:18:56;5.00;99.90
18281;DHT22;9266;51.132;17.062;2023-03-01T07:21:23;5.20;99.90
18281;DHT22;9266;51.132;17.062;2023-03-01T07:23:50;5.20;48.80
18281;DHT22;9266;51.132;17.062;2023-03-01T07:26:17;5.10;1.00
18281;DHT22;9266;51.132;17.062;2023-03-01T07:28:44;5.30;1.00
18281;DHT22;9266;51.132;17.062;2023-03-01T07:31:11;4.90;1.00
18281;DHT22;9266;51.132;17.062;2023-03-01T07:33:39;4.50;1.00
18281;DHT22;9266;51.132;17.062;2023-03-01T07:36:07;4.80;27.10
18281;DHT22;9266;51.132;17.062;2023-03-01T07:38:34;5.20;1.00
18281;DHT22;9266;51.132;17.062;2023-03-01T07:41:03;5.40;1.00
18281;DHT22;9266;51.132;17.062;2023-03-01T07:43:31;5.60;1.00
18281;DHT22;9266;51.132;17.062;2023-03-01T07:45:59;5.90;1.00
18281;DHT22;9266;51.132;17.062;2023-03-01T07:48:27;6.40;1.00
18281;DHT22;9266;51.132;17.062;2023-03-01T07:50:57;6.40;1.00
18281;DHT22;9266;51.132;17.062;2023-03-01T07:53:25;6.10;1.00
18281;DHT22;9266;51.132;17.062;2023-03-01T07:56:00;4.80;1.00
18281;DHT22;9266;51.132;17.062;2023-03-01T07:58:27;4.40;1.00
18281;DHT22;9266;51.132;17.062;2023-03-01T08:00:55;5.40;1.00
18281;DHT22;9266;51.132;17.062;2023-03-01T08:03:22;5.90;1.00
18281;DHT22;9266;51.132;17.062;2023-03-01T08:05:49;7.00;1.00
18281;DHT22;9266;51.132;17.062;2023-03-01T08:08:17;7.70;1.00
18281;DHT22;9266;51.132;17.062;2023-03-01T08:10:44;8.20;1.00
18281;DHT22;9266;51.132;17.062;2023-03-01T08:13:11;8.20;1.00
18281;DHT22;9266;51.132;17.062;2023-03-01T08:15:38;8.20;1.00
18281;DHT22;9266;51.132;17.062;2023-03-01T08:18:05;7.70;99.90
18281;DHT22;9266;51.132;17.062;2023-03-01T08:20:33;7.80;99.90
18281;DHT22;9266;51.132;17.062;2023-03-01T08:23:00;7.00;99.90
18281;DHT22;9266;51.132;17.062;2023-03-01T08:25:28;6.20;99.90
18281;DHT22;9266;51.132;17.062;2023-03-01T08:27:55;5.70;99.90
18281;DHT22;9266;51.132;17.062;2023-03-01T08:30:22;5.80;99.90
18281;DHT22;9266;51.132;17.062;2023-03-01T08:32:50;5.50;99.90
18281;DHT22;9266;51.132;17.062;2023-03-01T08:35:18;4.40;99.90
18281;DHT22;9266;51.132;17.062;2023-03-01T08:37:46;4.90;99.90
18281;DHT22;9266;51.132;17.062;2023-03-01T08:40:13;4.40;99.90
18281;DHT22;9266;51.132;17.062;2023-03-01T08:42:42;4.00;99.90
18281;DHT22;9266;51.132;17.062;2023-03-01T08:45:10;4.20;1.00
18281;DHT22;9266;51.132;17.062;2023-03-01T08:47:38;4.20;99.90
18281;DHT22;9266;51.132;17.062;2023-03-01T08:50:06;3.70;99.90
18281;DHT22;9266;51.132;17.062;2023-03-01T08:52:33;3.50;1.00
18281;DHT22;9266;51.132;17.062;2023-03-01T08:55:00;3.60;1.00
18281;DHT22;9266;51.132;17.062;2023-03-01T08:57:28;3.40;1.00
18281;DHT22;9266;51.132;17.062;2023-03-01T08:59:56;3.30;1.00
18281;DHT22;9266;51.132;17.062;2023-03-01T09:02:23;3.20;1.00
18281;DHT22;9266;51.132;17.062;2023-03-01T09:04:50;2.80;1.00
18281;DHT22;9266;51.132;17.062;2023-03-01T09:07:17;2.30;1.00
18281;DHT22;9266;51.132;17.062;2023-03-01T09:09:44;2.30;1.00
18281;DHT22;9266;51.132;17.062;2023-03-01T09:12:11;2.50;1.00
18281;DHT22;9266;51.132;17.062;2023-03-01T09:14:39;2.30;1.00
18281;DHT22;9266;51.132;17.062;2023-03-01T09:17:08;2.30;1.00
18281;DHT22;9266;51.132;17.062;2023-03-01T09:19:35;2.40;1.00
18281;DHT22;9266;51.132;17.062;2023-03-01T09:22:03;2.30;1.00
18281;DHT22;9266;51.132;17.062;2023-03-01T09:24:30;2.30;1.00
18281;DHT22;9266;51.132;17.062;2023-03-01T09:26:57;2.30;1.00
18281;DHT22;9266;51.132;17.062;2023-03-01T09:29:25;2.30;1.00
18281;DHT22;9266;51.132;17.062;2023-03-01T09:31:52;2.30;1.00
18281;DHT22;9266;51.132;17.062;2023-03-01T09:34:22;2.40;1.00
18281;DHT22;9266;51.132;17.062;2023-03-01T09:36:49;2.50;1.00
18281;DHT22;9266;51.132;17.062;2023-03-01T09:39:17;2.50;1.00
18281;DHT22;9266;51.132;17.062;2023-03-01T09:41:49;2.70;1.00
18281;DHT22;9266;51.132;17.062;2023-03-01T09:44:32;2.80;1.00
18281;DHT22;9266;51.132;17.062;2023-03-01T09:47:02;2.80;1.00
18281;DHT22;9266;51.132;17.062;2023-03-01T09:49:33;2.80;1.00
18281;DHT22;9266;51.132;17.062;2023-03-01T09:52:10;2.70;1.00
18281;DHT22;9266;51.132;17.062;2023-03-01T09:54:39;2.70;1.00
18281;DHT22;9266;51.132;17.062;2023-03-01T09:57:14;2.90;1.00
18281;DHT22;9266;51.132;17.062;2023-03-01T09:59:58;3.10;1.00
18281;DHT22;9266;51.132;17.062;2023-03-01T10:02:35;3.00;1.00
18281;DHT22;9266;51.132;17.062;2023-03-01T10:05:13;2.90;1.00
18281;DHT22;9266;51.132;17.062;2023-03-01T10:07:51;2.80;1.00
18281;DHT22;9266;51.132;17.062;2023-03-01T10:10:27;2.70;1.00
18281;DHT22;9266;51.132;17.062;2023-03-01T10:12:56;2.90;1.00
18281;DHT22;9266;51.132;17.062;2023-03-01T10:15:33;2.90;1.00
18281;DHT22;9266;51.132;17.062;2023-03-01T10:18:04;3.10;1.00
18281;DHT22;9266;51.132;17.062;2023-03-01T10:20:44;3.20;1.00
18281;DHT22;9266;51.132;17.062;2023-03-01T10:23:13;3.10;1.00
18281;DHT22;9266;51.132;17.062;2023-03-01T10:25:47;3.10;1.00
18281;DHT22;9266;51.132;17.062;2023-03-01T10:28:25;3.70;1.00
18281;DHT22;9266;51.132;17.062;2023-03-01T10:30:57;3.30;1.00
18281;DHT22;9266;51.132;17.062;2023-03-01T10:33:27;3.60;1.00
18281;DHT22;9266;51.132;17.062;2023-03-01T10:35:57;3.60;1.00
18281;DHT22;9266;51.132;17.062;2023-03-01T10:38:25;3.30;1.00
18281;DHT22;9266;51.132;17.062;2023-03-01T10:40:54;3.40;1.00
18281;DHT22;9266;51.132;17.062;2023-03-01T10:43:23;3.50;1.00
18281;DHT22;9266;51.132;17.062;2023-03-01T10:45:50;3.60;1.00
18281;DHT22;9266;51.132;17.062;2023-03-01T10:48:19;3.70;1.00
18281;DHT22;9266;51.132;17.062;2023-03-01T10:50:51;3.80;1.00
18281;DHT22;9266;51.132;17.062;2023-03-01T10:53:33;3.80;99.90
18281;DHT22;9266;51.132;17.062;2023-03-01T10:56:03;3.90;99.90
18281;DHT22;9266;51.132;17.062;2023-03-01T10:58:32;3.70;99.90
18281;DHT22;9266;51.132;17.062;2023-03-01T11:01:02;3.90;99.90
18281;DHT22;9266;51.132;17.062;2023-03-01T11:03:31;4.00;99.90
18281;DHT22;9266;51.132;17.062;2023-03-01T11:06:05;4.10;99.90
18281;DHT22;9266;51.132;17.062;2023-03-01T11:08:42;4.10;99.90
18281;DHT22;9266;51.132;17.062;2023-03-01T11:11:22;4.10;99.90
18281;DHT22;9266;51.132;17.062;2023-03-01T11:13:55;4.00;1.00
18281;DHT22;9266;51.132;17.062;2023-03-01T11:16:25;4.10;1.00
18281;DHT22;9266;51.132;17.062;2023-03-01T11:18:57;4.10;99.90
18281;DHT22;9266;51.132;17.062;2023-03-01T11:21:25;4.10;99.90
18281;DHT22;9266;51.132;17.062;2023-03-01T11:23:57;4.00;99.90
18281;DHT22;9266;51.132;17.062;2023-03-01T11:26:28;4.70;99.90
18281;DHT22;9266;51.132;17.062;2023-03-01T11:29:00;4.20;99.90
18281;DHT22;9266;51.132;17.062;2023-03-01T11:31:29;4.10;99.90
18281;DHT22;9266;51.132;17.062;2023-03-01T11:34:02;4.30;99.90
18281;DHT22;9266;51.132;17.062;2023-03-01T11:36:35;4.30;99.90
18281;DHT22;9266;51.132;17.062;2023-03-01T11:39:26;4.10;99.90
18281;DHT22;9266;51.132;17.062;2023-03-01T11:42:01;4.10;99.90
18281;DHT22;9266;51.132;17.062;2023-03-01T11:44:33;4.10;99.90
18281;DHT22;9266;51.132;17.062;2023-03-01T11:47:11;4.20;99.90
18281;DHT22;9266;51.132;17.062;2023-03-01T11:52:38;4.30;99.90
18281;DHT22;9266;51.132;17.062;2023-03-01T11:55:21;4.50;99.90
18281;DHT22;9266;51.132;17.062;2023-03-01T11:58:11;4.40;99.90
18281;DHT22;9266;51.132;17.062;2023-03-01T12:04:00;4.40;99.90
18281;DHT22;9266;51.132;17.062;2023-03-01T12:06:50;4.60;99.90
18281;DHT22;9266;51.132;17.062;2023-03-01T12:09:31;4.50;99.90
18281;DHT22;9266;51.132;17.062;2023-03-01T12:12:25;4.30;99.90
18281;DHT22;9266;51.132;17.062;2023-03-01T12:15:11;4.50;99.90
18281;DHT22;9266;51.132;17.062;2023-03-01T12:17:55;4.50;99.90
18281;DHT22;9266;51.132;17.062;2023-03-01T12:20:30;4.60;99.90
18281;DHT22;9266;51.132;17.062;2023-03-01T12:23:16;4.60;99.90
18281;DHT22;9266;51.132;17.062;2023-03-01T12:25:51;4.70;99.90
18281;DHT22;9266;51.132;17.062;2023-03-01T12:28:31;4.70;99.90
18281;DHT22;9266;51.132;17.062;2023-03-01T12:31:21;4.90;99.90
18281;DHT22;9266;51.132;17.062;2023-03-01T12:34:03;5.10;99.90
18281;DHT22;9266;51.132;17.062;2023-03-01T12:36:48;5.20;99.90
18281;DHT22;9266;51.132;17.062;2023-03-01T12:39:28;5.30;99.90
18281;DHT22;9266;51.132;17.062;2023-03-01T12:42:07;5.40;99.90
18281;DHT22;9266;51.132;17.062;2023-03-01T12:44:57;5.40;99.90
18281;DHT22;9266;51.132;17.062;2023-03-01T12:47:40;5.40;99.90
18281;DHT22;9266;51.132;17.062;2023-03-01T12:50:12;5.20;99.90
18281;DHT22;9266;51.132;17.062;2023-03-01T12:52:44;5.20;99.90
18281;DHT22;9266;51.132;17.062;2023-03-01T12:55:26;6.00;99.90
18281;DHT22;9266;51.132;17.062;2023-03-01T12:58:00;5.20;99.90
18281;DHT22;9266;51.132;17.062;2023-03-01T13:00:36;5.20;99.90
18281;DHT22;9266;51.132;17.062;2023-03-01T13:03:17;5.30;99.90
18281;DHT22;9266;51.132;17.062;2023-03-01T13:05:55;5.40;99.90
18281;DHT22;9266;51.132;17.062;2023-03-01T13:08:29;5.40;54.00
18281;DHT22;9266;51.132;17.062;2023-03-01T13:11:01;5.50;64.50
18281;DHT22;9266;51.132;17.062;2023-03-01T13:13:29;5.30;57.70
18281;DHT22;9266;51.132;17.062;2023-03-01T13:19:14;5.50;99.90
18281;DHT22;9266;51.132;17.062;2023-03-01T13:21:43;5.50;99.90
18281;DHT22;9266;51.132;17.062;2023-03-01T13:24:28;5.50;99.90
18281;DHT22;9266;51.132;17.062;2023-03-01T13:27:22;5.50;99.90
18281;DHT22;9266;51.132;17.062;2023-03-01T13:29:56;5.40;99.90
18281;DHT22;9266;51.132;17.062;2023-03-01T13:32:29;5.30;99.90
18281;DHT22;9266;51.132;17.062;2023-03-01T13:35:02;5.40;99.90
18281;DHT22;9266;51.132;17.062;2023-03-01T13:37:35;5.30;99.90
18281;DHT22;9266;51.132;17.062;2023-03-01T13:43:29;5.50;99.90
18281;DHT22;9266;51.132;17.062;2023-03-01T13:45:58;5.50;99.90
18281;DHT22;9266;51.132;17.062;2023-03-01T13:48:29;5.50;99.90
18281;DHT22;9266;51.132;17.062;2023-03-01T13:51:00;5.50;99.90
18281;DHT22;9266;51.132;17.062;2023-03-01T13:53:31;5.50;99.90
18281;DHT22;9266;51.132;17.062;2023-03-01T13:56:01;5.50;99.90
18281;DHT22;9266;51.132;17.062;2023-03-01T13:58:30;5.60;99.90
18281;DHT22;9266;51.132;17.062;2023-03-01T14:01:00;5.70;99.90
18281;DHT22;9266;51.132;17.062;2023-03-01T14:03:29;5.70;99.90
18281;DHT22;9266;51.132;17.062;2023-03-01T14:06:08;5.60;99.90
18281;DHT22;9266;51.132;17.062;2023-03-01T14:08:36;5.70;99.90
18281;DHT22;9266;51.132;17.062;2023-03-01T14:11:29;5.70;99.90
18281;DHT22;9266;51.132;17.062;2023-03-01T14:14:22;5.70;99.90
18281;DHT22;9266;51.132;17.062;2023-03-01T14:17:03;5.70;99.90
18281;DHT22;9266;51.132;17.062;2023-03-01T14:19:34;5.50;99.90
18281;DHT22;9266;51.132;17.062;2023-03-01T14:22:10;5.60;99.90
18281;DHT22;9266;51.132;17.062;2023-03-01T14:24:46;5.60;99.90
18281;DHT22;9266;51.132;17.062;2023-03-01T14:27:15;5.60;99.90
18281;DHT22;9266;51.132;17.062;2023-03-01T14:29:43;5.60;99.90
18281;DHT22;9266;51.132;17.062;2023-03-01T14:32:19;5.50;99.90
18281;DHT22;9266;51.132;17.062;2023-03-01T14:34:49;5.50;99.90
18281;DHT22;9266;51.132;17.062;2023-03-01T14:37:22;5.50;99.90
18281;DHT22;9266;51.132;17.062;2023-03-01T14:39:49;5.60;99.90
18281;DHT22;9266;51.132;17.062;2023-03-01T14:42:18;5.40;99.90
18281;DHT22;9266;51.132;17.062;2023-03-01T14:44:48;5.60;99.90
18281;DHT22;9266;51.132;17.062;2023-03-01T14:47:23;5.50;99.90
18281;DHT22;9266;51.132;17.062;2023-03-01T14:49:58;5.50;99.90
18281;DHT22;9266;51.132;17.062;2023-03-01T14:52:32;5.40;99.90
18281;DHT22;9266;51.132;17.062;2023-03-01T14:55:04;5.40;99.90
18281;DHT22;9266;51.132;17.062;2023-03-01T14:57:32;5.50;99.90
18281;DHT22;9266;51.132;17.062;2023-03-01T15:00:01;5.50;99.90
18281;DHT22;9266;51.132;17.062;2023-03-01T15:02:31;5.50;99.90
18281;DHT22;9266;51.132;17.062;2023-03-01T15:05:03;5.50;99.90
18281;DHT22;9266;51.132;17.062;2023-03-01T15:07:33;5.40;99.90
18281;DHT22;9266;51.132;17.062;2023-03-01T15:10:02;5.40;99.90
18281;DHT22;9266;51.132;17.062;2023-03-01T15:12:38;5.30;99.90
18281;DHT22;9266;51.132;17.062;2023-03-01T15:15:37;5.30;99.90
18281;DHT22;9266;51.132;17.062;2023-03-01T15:18:14;5.40;99.90
18281;DHT22;9266;51.132;17.062;2023-03-01T15:20:44;5.50;99.90
18281;DHT22;9266;51.132;17.062;2023-03-01T15:23:25;5.50;99.90
18281;DHT22;9266;51.132;17.062;2023-03-01T15:25:54;5.50;99.90
18281;DHT22;9266;51.132;17.062;2023-03-01T15:28:27;5.50;99.90
18281;DHT22;9266;51.132;17.062;2023-03-01T15:30:57;5.30;99.90
18281;DHT22;9266;51.132;17.062;2023-03-01T15:33:34;5.20;99.90
18281;DHT22;9266;51.132;17.062;2023-03-01T15:38:52;5.20;99.90
18281;DHT22;9266;51.132;17.062;2023-03-01T15:41:25;5.20;99.90
18281;DHT22;9266;51.132;17.062;2023-03-01T15:43:53;5.10;99.90
18281;DHT22;9266;51.132;17.062;2023-03-01T15:46:25;5.10;99.90
18281;DHT22;9266;51.132;17.062;2023-03-01T15:48:54;5.20;99.90
18281;DHT22;9266;51.132;17.062;2023-03-01T15:51:29;5.10;99.90
18281;DHT22;9266;51.132;17.062;2023-03-01T15:53:59;5.00;99.90
18281;DHT22;9266;51.132;17.062;2023-03-01T15:56:27;4.90;99.90
18281;DHT22;9266;51.132;17.062;2023-03-01T15:58:58;4.80;99.90
18281;DHT22;9266;51.132;17.062;2023-03-01T16:01:26;4.90;99.90
18281;DHT22;9266;51.132;17.062;2023-03-01T16:03:54;4.90;99.90
18281;DHT22;9266;51.132;17.062;2023-03-01T16:06:22;4.90;99.90
18281;DHT22;9266;51.132;17.062;2023-03-01T16:08:50;4.70;99.90
18281;DHT22;9266;51.132;17.062;2023-03-01T16:11:19;4.70;99.90
18281;DHT22;9266;51.132;17.062;2023-03-01T16:13:46;4.70;99.90
18281;DHT22;9266;51.132;17.062;2023-03-01T16:16:15;4.60;99.90
18281;DHT22;9266;51.132;17.062;2023-03-01T16:18:43;4.50;99.90
18281;DHT22;9266;51.132;17.062;2023-03-01T16:21:16;4.40;99.90
18281;DHT22;9266;51.132;17.062;2023-03-01T16:23:46;4.40;99.90